Terminal Aerodrome Forecast
Issued by NWS Mobile, AL

Home | Current Version | Previous Version | Text Only | Print | Product List | Glossary On
Versions: 1 2 3 4 5 6 7 8 9 10 11 12 13 14
000
FTUS44 KMOB 202320
TAFPNS
TAF
KPNS 202320Z 2100/2124 17006KT P6SM SCT250
     FM210300 07011KT P6SM SCT250
     FM211500 10015KT P6SM OVC015
     FM211800 12013KT P6SM BKN030=

USA.gov is the U.S. government's official web portal to all federal, state and local government web resources and services.